GIA154 WIII-WIDD
Flight info
| Callsign | GIA154 |
|---|---|
| Flight time | 1h 12m |
| Altitude | 38000 |
| Route | DOLTA A585 PLB T25 IGUTU |
| Aircraft | B77W/H-SDE1E2E3FGHIJ2J3J4J5M1RWXY/LB1D1 |
Departure
| Time | 2026-05-07 13:44 |
|---|---|
| Airport | Soekarno-Hatta International Airport (WIII) |
Arrival
| Time | 2026-05-07 14:56 |
|---|---|
| Airport | Hang Nadim International Airport (WIDD) |
| Time | Latitude | Longitude | Altitude | Speed | Heading |
|---|---|---|---|---|---|
| 2026-05-07 13:14 | -6.11663 | 106.66680 | 43 ft | 0 kts | 158° |
| 2026-05-07 13:28 | -6.11661 | 106.66680 | 43 ft | 2 kts | 158° |
| 2026-05-07 13:29 | -6.11646 | 106.66674 | 43 ft | 2 kts | 160° |
| 2026-05-07 13:29 | -6.11630 | 106.66668 | 43 ft | 2 kts | 161° |
| 2026-05-07 13:29 | -6.11615 | 106.66663 | 43 ft | 2 kts | 165° |
| 2026-05-07 13:29 | -6.11599 | 106.66659 | 43 ft | 2 kts | 171° |
| 2026-05-07 13:30 | -6.11582 | 106.66658 | 43 ft | 2 kts | 187° |
| 2026-05-07 13:30 | -6.11567 | 106.66663 | 43 ft | 2 kts | 226° |
| 2026-05-07 13:30 | -6.11560 | 106.66673 | 42 ft | 1 kts | 245° |
| 2026-05-07 13:30 | -6.11559 | 106.66675 | 43 ft | 0 kts | 246° |
| 2026-05-07 13:33 | -6.11571 | 106.66647 | 43 ft | 12 kts | 248° |
| 2026-05-07 13:34 | -6.11604 | 106.66562 | 43 ft | 13 kts | 248° |
| 2026-05-07 13:34 | -6.11673 | 106.66390 | 43 ft | 13 kts | 248° |
| 2026-05-07 13:34 | -6.11707 | 106.66303 | 43 ft | 13 kts | 248° |
| 2026-05-07 13:35 | -6.11741 | 106.66218 | 42 ft | 13 kts | 248° |
| 2026-05-07 13:35 | -6.11775 | 106.66132 | 43 ft | 13 kts | 248° |
| 2026-05-07 13:35 | -6.11797 | 106.66066 | 43 ft | 10 kts | 266° |
| 2026-05-07 13:35 | -6.11760 | 106.66013 | 43 ft | 10 kts | 328° |
| 2026-05-07 13:36 | -6.11698 | 106.65983 | 43 ft | 10 kts | 337° |
| 2026-05-07 13:36 | -6.11635 | 106.65957 | 43 ft | 10 kts | 338° |
| 2026-05-07 13:36 | -6.11570 | 106.65927 | 43 ft | 10 kts | 334° |
| 2026-05-07 13:36 | -6.11524 | 106.65904 | 43 ft | 6 kts | 333° |
| 2026-05-07 13:37 | -6.11509 | 106.65868 | 43 ft | 8 kts | 263° |
| 2026-05-07 13:37 | -6.11536 | 106.65787 | 43 ft | 15 kts | 249° |
| 2026-05-07 13:37 | -6.11574 | 106.65691 | 43 ft | 15 kts | 248° |
| 2026-05-07 13:37 | -6.11613 | 106.65595 | 43 ft | 15 kts | 248° |
| 2026-05-07 13:38 | -6.11651 | 106.65500 | 43 ft | 15 kts | 248° |
| 2026-05-07 13:38 | -6.11689 | 106.65404 | 43 ft | 15 kts | 248° |
| 2026-05-07 13:38 | -6.11728 | 106.65308 | 42 ft | 15 kts | 248° |
| 2026-05-07 13:38 | -6.11767 | 106.65209 | 44 ft | 16 kts | 248° |
| 2026-05-07 13:39 | -6.11809 | 106.65103 | 44 ft | 17 kts | 248° |
| 2026-05-07 13:39 | -6.11854 | 106.64991 | 44 ft | 18 kts | 248° |
| 2026-05-07 13:39 | -6.11902 | 106.64871 | 44 ft | 19 kts | 248° |
| 2026-05-07 13:39 | -6.11954 | 106.64742 | 44 ft | 20 kts | 248° |
| 2026-05-07 13:40 | -6.12007 | 106.64609 | 44 ft | 21 kts | 248° |
| 2026-05-07 13:40 | -6.12059 | 106.64475 | 44 ft | 21 kts | 248° |
| 2026-05-07 13:40 | -6.12113 | 106.64342 | 44 ft | 21 kts | 248° |
| 2026-05-07 13:40 | -6.12166 | 106.64208 | 44 ft | 21 kts | 248° |
| 2026-05-07 13:41 | -6.12219 | 106.64074 | 44 ft | 21 kts | 249° |
| 2026-05-07 13:41 | -6.12257 | 106.63976 | 44 ft | 10 kts | 254° |
| 2026-05-07 13:41 | -6.12251 | 106.63909 | 45 ft | 10 kts | 297° |
| 2026-05-07 13:41 | -6.12181 | 106.63884 | 46 ft | 18 kts | 19° |
| 2026-05-07 13:42 | -6.12130 | 106.63910 | 45 ft | 6 kts | 28° |
| 2026-05-07 13:42 | -6.12090 | 106.63933 | 44 ft | 8 kts | 36° |
| 2026-05-07 13:42 | -6.12065 | 106.63975 | 45 ft | 0 kts | 67° |
| 2026-05-07 13:43 | -6.12050 | 106.64011 | 45 ft | 21 kts | 67° |
| 2026-05-07 13:44 | -6.11883 | 106.64431 | 45 ft | 109 kts | 68° |
| 2026-05-07 13:44 | -6.11505 | 106.65383 | 44 ft | 181 kts | 68° |
| 2026-05-07 13:44 | -6.10999 | 106.66616 | 722 ft | 187 kts | 69° |
| 2026-05-07 13:44 | -6.10481 | 106.67786 | 1766 ft | 181 kts | 59° |
| 2026-05-07 13:45 | -6.09506 | 106.68698 | 2253 ft | 205 kts | 31° |
| 2026-05-07 13:45 | -6.08163 | 106.69341 | 2796 ft | 221 kts | 27° |
| 2026-05-07 13:45 | -6.06766 | 106.70006 | 3625 ft | 225 kts | 31° |
| 2026-05-07 13:45 | -6.05323 | 106.70784 | 3940 ft | 253 kts | 21° |
| 2026-05-07 13:46 | -6.03501 | 106.70804 | 4509 ft | 276 kts | 343° |
| 2026-05-07 13:46 | -6.01862 | 106.69762 | 5345 ft | 284 kts | 319° |
| 2026-05-07 13:46 | -6.00385 | 106.68387 | 6148 ft | 293 kts | 319° |
| 2026-05-07 13:46 | -5.98885 | 106.66986 | 7127 ft | 295 kts | 319° |
| 2026-05-07 13:47 | -5.97366 | 106.65588 | 8096 ft | 298 kts | 319° |
| 2026-05-07 13:47 | -5.95815 | 106.64182 | 8991 ft | 302 kts | 320° |
| 2026-05-07 13:47 | -5.94237 | 106.62773 | 9868 ft | 305 kts | 320° |
| 2026-05-07 13:47 | -5.92625 | 106.61352 | 10644 ft | 315 kts | 320° |
| 2026-05-07 13:48 | -5.90899 | 106.59843 | 10920 ft | 344 kts | 320° |
| 2026-05-07 13:48 | -5.89019 | 106.58208 | 11258 ft | 367 kts | 320° |
| 2026-05-07 13:48 | -5.87074 | 106.56524 | 12036 ft | 378 kts | 320° |
| 2026-05-07 13:48 | -5.85072 | 106.54794 | 13020 ft | 382 kts | 320° |
| 2026-05-07 13:49 | -5.83044 | 106.53042 | 14015 ft | 387 kts | 320° |
| 2026-05-07 13:49 | -5.80982 | 106.51265 | 14931 ft | 393 kts | 320° |
| 2026-05-07 13:49 | -5.78887 | 106.49459 | 15802 ft | 400 kts | 320° |
| 2026-05-07 13:49 | -5.76757 | 106.47626 | 16653 ft | 406 kts | 320° |
| 2026-05-07 13:50 | -5.74601 | 106.45772 | 17490 ft | 411 kts | 320° |
| 2026-05-07 13:50 | -5.72415 | 106.43892 | 18304 ft | 416 kts | 320° |
| 2026-05-07 13:50 | -5.70202 | 106.41988 | 19100 ft | 421 kts | 320° |
| 2026-05-07 13:50 | -5.67965 | 106.40064 | 19934 ft | 425 kts | 320° |
| 2026-05-07 13:51 | -5.65712 | 106.38127 | 20739 ft | 428 kts | 321° |
| 2026-05-07 13:51 | -5.63436 | 106.36170 | 21506 ft | 432 kts | 320° |
| 2026-05-07 13:51 | -5.61145 | 106.34201 | 22235 ft | 436 kts | 321° |
| 2026-05-07 13:51 | -5.58832 | 106.32213 | 22843 ft | 439 kts | 321° |
| 2026-05-07 13:52 | -5.56494 | 106.30204 | 22877 ft | 444 kts | 321° |
| 2026-05-07 13:52 | -5.54183 | 106.28216 | 22889 ft | 442 kts | 321° |
| 2026-05-07 13:52 | -5.51852 | 106.26210 | 22889 ft | 441 kts | 321° |
| 2026-05-07 13:52 | -5.49525 | 106.24209 | 22888 ft | 440 kts | 321° |
| 2026-05-07 13:53 | -5.47192 | 106.22205 | 22891 ft | 440 kts | 321° |
| 2026-05-07 13:53 | -5.44864 | 106.20205 | 22890 ft | 441 kts | 321° |
| 2026-05-07 13:53 | -5.42534 | 106.18203 | 22888 ft | 441 kts | 321° |
| 2026-05-07 13:53 | -5.40208 | 106.16205 | 22893 ft | 441 kts | 321° |
| 2026-05-07 13:54 | -5.37874 | 106.14201 | 22889 ft | 441 kts | 321° |
| 2026-05-07 13:54 | -5.35539 | 106.12195 | 22890 ft | 441 kts | 321° |
| 2026-05-07 13:54 | -5.33236 | 106.10218 | 22887 ft | 441 kts | 321° |
| 2026-05-07 13:54 | -5.31662 | 106.08865 | 22893 ft | 441 kts | 321° |
| 2026-05-07 13:55 | -5.29331 | 106.06864 | 22896 ft | 442 kts | 321° |
| 2026-05-07 13:55 | -5.26976 | 106.04842 | 23346 ft | 449 kts | 321° |
| 2026-05-07 13:55 | -5.23820 | 106.02133 | 24302 ft | 450 kts | 321° |
| 2026-05-07 13:55 | -5.21436 | 106.00086 | 24957 ft | 453 kts | 321° |
| 2026-05-07 13:56 | -5.19810 | 105.98690 | 25312 ft | 457 kts | 321° |
| 2026-05-07 13:56 | -5.17412 | 105.96632 | 25795 ft | 462 kts | 321° |
| 2026-05-07 13:56 | -5.14956 | 105.94526 | 26308 ft | 467 kts | 321° |
| 2026-05-07 13:56 | -5.12413 | 105.92488 | 26845 ft | 470 kts | 325° |
| 2026-05-07 13:57 | -5.09662 | 105.90705 | 27342 ft | 473 kts | 332° |
| 2026-05-07 13:57 | -5.06788 | 105.89077 | 27825 ft | 477 kts | 332° |
| 2026-05-07 13:57 | -5.03876 | 105.87452 | 28289 ft | 481 kts | 332° |
| 2026-05-07 13:57 | -5.00937 | 105.85811 | 28741 ft | 486 kts | 332° |
| 2026-05-07 13:58 | -4.97969 | 105.84145 | 29175 ft | 490 kts | 332° |
| 2026-05-07 13:58 | -4.94987 | 105.82462 | 29617 ft | 494 kts | 332° |
| 2026-05-07 13:58 | -4.91990 | 105.80761 | 30038 ft | 497 kts | 332° |
| 2026-05-07 13:58 | -4.88964 | 105.79040 | 30423 ft | 501 kts | 332° |
| 2026-05-07 13:59 | -4.85926 | 105.77308 | 30835 ft | 504 kts | 332° |
| 2026-05-07 13:59 | -4.82876 | 105.75568 | 31256 ft | 505 kts | 332° |
| 2026-05-07 13:59 | -4.79817 | 105.73823 | 31732 ft | 505 kts | 332° |
| 2026-05-07 13:59 | -4.76770 | 105.72085 | 32284 ft | 502 kts | 332° |
| 2026-05-07 14:00 | -4.73746 | 105.70362 | 32866 ft | 499 kts | 332° |
| 2026-05-07 14:00 | -4.70777 | 105.68670 | 33428 ft | 496 kts | 332° |
| 2026-05-07 14:00 | -4.67782 | 105.66963 | 33975 ft | 494 kts | 332° |
| 2026-05-07 14:00 | -4.64764 | 105.65246 | 34498 ft | 492 kts | 331° |
| 2026-05-07 14:01 | -4.61795 | 105.63557 | 34975 ft | 490 kts | 331° |
| 2026-05-07 14:01 | -4.58868 | 105.61892 | 35428 ft | 489 kts | 331° |
| 2026-05-07 14:01 | -4.55908 | 105.60207 | 35895 ft | 488 kts | 331° |
| 2026-05-07 14:01 | -4.52960 | 105.58528 | 36348 ft | 486 kts | 331° |
| 2026-05-07 14:02 | -4.50021 | 105.56854 | 36753 ft | 485 kts | 331° |
| 2026-05-07 14:02 | -4.47092 | 105.55188 | 37276 ft | 481 kts | 330° |
| 2026-05-07 14:02 | -4.44198 | 105.53539 | 37832 ft | 476 kts | 330° |
| 2026-05-07 14:03 | -4.38404 | 105.50242 | 37893 ft | 480 kts | 330° |
| 2026-05-07 14:03 | -4.32675 | 105.46984 | 37881 ft | 473 kts | 330° |
| 2026-05-07 14:04 | -4.26958 | 105.43731 | 37887 ft | 471 kts | 330° |
| 2026-05-07 14:04 | -4.21251 | 105.40487 | 37888 ft | 471 kts | 330° |
| 2026-05-07 14:05 | -4.15550 | 105.37246 | 37891 ft | 471 kts | 330° |
| 2026-05-07 14:05 | -4.09840 | 105.33998 | 37887 ft | 472 kts | 330° |
| 2026-05-07 14:06 | -4.04150 | 105.30765 | 37892 ft | 473 kts | 330° |
| 2026-05-07 14:06 | -3.98417 | 105.27505 | 37888 ft | 474 kts | 330° |
| 2026-05-07 14:07 | -3.92661 | 105.24233 | 37891 ft | 475 kts | 330° |
| 2026-05-07 14:07 | -3.86888 | 105.20972 | 37891 ft | 476 kts | 331° |
| 2026-05-07 14:08 | -3.81145 | 105.17745 | 37890 ft | 476 kts | 331° |
| 2026-05-07 14:08 | -3.75352 | 105.14487 | 37889 ft | 476 kts | 331° |
| 2026-05-07 14:09 | -3.69577 | 105.11237 | 37888 ft | 475 kts | 331° |
| 2026-05-07 14:09 | -3.63847 | 105.08011 | 37889 ft | 475 kts | 331° |
| 2026-05-07 14:10 | -3.58087 | 105.04769 | 37889 ft | 474 kts | 331° |
| 2026-05-07 14:10 | -3.52333 | 105.01530 | 37891 ft | 474 kts | 331° |
| 2026-05-07 14:11 | -3.46585 | 104.98296 | 37885 ft | 474 kts | 331° |
| 2026-05-07 14:11 | -3.40827 | 104.95057 | 37889 ft | 474 kts | 331° |
| 2026-05-07 14:12 | -3.35096 | 104.91833 | 37886 ft | 475 kts | 331° |
| 2026-05-07 14:12 | -3.29328 | 104.88591 | 37885 ft | 475 kts | 331° |
| 2026-05-07 14:13 | -3.23564 | 104.85350 | 37891 ft | 475 kts | 331° |
| 2026-05-07 14:13 | -3.17793 | 104.82105 | 37890 ft | 476 kts | 331° |
| 2026-05-07 14:14 | -3.12022 | 104.78862 | 37889 ft | 476 kts | 331° |
| 2026-05-07 14:14 | -3.06286 | 104.75635 | 37884 ft | 476 kts | 331° |
| 2026-05-07 14:15 | -3.00506 | 104.72386 | 37889 ft | 475 kts | 331° |
| 2026-05-07 14:15 | -2.94729 | 104.69138 | 37889 ft | 475 kts | 331° |
| 2026-05-07 14:16 | -2.88830 | 104.66269 | 37883 ft | 475 kts | 342° |
| 2026-05-07 14:16 | -2.82369 | 104.64995 | 37884 ft | 474 kts | 357° |
| 2026-05-07 14:17 | -2.75780 | 104.64803 | 37890 ft | 474 kts | 359° |
| 2026-05-07 14:17 | -2.69174 | 104.64665 | 37889 ft | 474 kts | 359° |
| 2026-05-07 14:18 | -2.62570 | 104.64489 | 37892 ft | 474 kts | 359° |
| 2026-05-07 14:18 | -2.55961 | 104.64281 | 37887 ft | 475 kts | 359° |
| 2026-05-07 14:19 | -2.49390 | 104.64069 | 37888 ft | 475 kts | 359° |
| 2026-05-07 14:19 | -2.42769 | 104.63855 | 37891 ft | 476 kts | 359° |
| 2026-05-07 14:20 | -2.36154 | 104.63643 | 37888 ft | 476 kts | 359° |
| 2026-05-07 14:20 | -2.29535 | 104.63431 | 37885 ft | 475 kts | 359° |
| 2026-05-07 14:21 | -2.22919 | 104.63219 | 37888 ft | 475 kts | 359° |
| 2026-05-07 14:21 | -2.16305 | 104.63006 | 37891 ft | 475 kts | 359° |
| 2026-05-07 14:22 | -2.09728 | 104.62797 | 37886 ft | 475 kts | 359° |
| 2026-05-07 14:22 | -2.03120 | 104.62585 | 37887 ft | 474 kts | 359° |
| 2026-05-07 14:23 | -1.96519 | 104.62374 | 37888 ft | 474 kts | 359° |
| 2026-05-07 14:23 | -1.89921 | 104.62162 | 37886 ft | 474 kts | 359° |
| 2026-05-07 14:24 | -1.83355 | 104.61951 | 37888 ft | 475 kts | 359° |
| 2026-05-07 14:24 | -1.76749 | 104.61737 | 37884 ft | 475 kts | 359° |
| 2026-05-07 14:25 | -1.70133 | 104.61529 | 37880 ft | 476 kts | 359° |
| 2026-05-07 14:25 | -1.63500 | 104.61318 | 37887 ft | 477 kts | 359° |
| 2026-05-07 14:26 | -1.56869 | 104.61105 | 37876 ft | 477 kts | 359° |
| 2026-05-07 14:26 | -1.50223 | 104.60891 | 37876 ft | 477 kts | 359° |
| 2026-05-07 14:27 | -1.43629 | 104.60680 | 37880 ft | 477 kts | 359° |
| 2026-05-07 14:27 | -1.36993 | 104.60468 | 37882 ft | 477 kts | 359° |
| 2026-05-07 14:28 | -1.30361 | 104.60256 | 37877 ft | 477 kts | 359° |
| 2026-05-07 14:28 | -1.23730 | 104.60043 | 37875 ft | 477 kts | 359° |
| 2026-05-07 14:29 | -1.17130 | 104.59833 | 37876 ft | 476 kts | 359° |
| 2026-05-07 14:29 | -1.13830 | 104.59727 | 37570 ft | 475 kts | 359° |
| 2026-05-07 14:29 | -1.10527 | 104.59622 | 37075 ft | 472 kts | 359° |
| 2026-05-07 14:29 | -1.07255 | 104.59505 | 36620 ft | 468 kts | 357° |
| 2026-05-07 14:30 | -1.04034 | 104.59133 | 36160 ft | 464 kts | 351° |
| 2026-05-07 14:30 | -1.00887 | 104.58474 | 35708 ft | 460 kts | 346° |
| 2026-05-07 14:30 | -0.97847 | 104.57521 | 35271 ft | 457 kts | 342° |
| 2026-05-07 14:30 | -0.94854 | 104.56481 | 34785 ft | 453 kts | 341° |
| 2026-05-07 14:31 | -0.91889 | 104.55436 | 34327 ft | 450 kts | 341° |
| 2026-05-07 14:31 | -0.88970 | 104.54409 | 33863 ft | 447 kts | 342° |
| 2026-05-07 14:31 | -0.86041 | 104.53388 | 33389 ft | 444 kts | 342° |
| 2026-05-07 14:31 | -0.83129 | 104.52381 | 32935 ft | 441 kts | 342° |
| 2026-05-07 14:32 | -0.80240 | 104.51387 | 32478 ft | 438 kts | 342° |
| 2026-05-07 14:32 | -0.77363 | 104.50400 | 32020 ft | 435 kts | 342° |
| 2026-05-07 14:32 | -0.74503 | 104.49419 | 31556 ft | 432 kts | 342° |
| 2026-05-07 14:32 | -0.71663 | 104.48445 | 31100 ft | 430 kts | 342° |
| 2026-05-07 14:33 | -0.68841 | 104.47477 | 30645 ft | 427 kts | 342° |
| 2026-05-07 14:33 | -0.66036 | 104.46515 | 30192 ft | 425 kts | 342° |
| 2026-05-07 14:33 | -0.63246 | 104.45558 | 29752 ft | 422 kts | 342° |
| 2026-05-07 14:33 | -0.60478 | 104.44608 | 29286 ft | 419 kts | 342° |
| 2026-05-07 14:34 | -0.57728 | 104.43665 | 28823 ft | 416 kts | 342° |
| 2026-05-07 14:34 | -0.55029 | 104.42740 | 28379 ft | 414 kts | 342° |
| 2026-05-07 14:34 | -0.52311 | 104.41808 | 27932 ft | 411 kts | 342° |
| 2026-05-07 14:34 | -0.49608 | 104.40882 | 27456 ft | 409 kts | 342° |
| 2026-05-07 14:35 | -0.46922 | 104.39963 | 27022 ft | 406 kts | 343° |
| 2026-05-07 14:35 | -0.44248 | 104.39048 | 26572 ft | 404 kts | 343° |
| 2026-05-07 14:35 | -0.41590 | 104.38139 | 26130 ft | 402 kts | 343° |
| 2026-05-07 14:35 | -0.38949 | 104.37234 | 25681 ft | 399 kts | 343° |
| 2026-05-07 14:36 | -0.36322 | 104.36334 | 25246 ft | 397 kts | 343° |
| 2026-05-07 14:36 | -0.33749 | 104.35452 | 24814 ft | 394 kts | 343° |
| 2026-05-07 14:36 | -0.31161 | 104.34565 | 24379 ft | 392 kts | 343° |
| 2026-05-07 14:36 | -0.28584 | 104.33683 | 23940 ft | 389 kts | 343° |
| 2026-05-07 14:37 | -0.26026 | 104.32808 | 23511 ft | 387 kts | 343° |
| 2026-05-07 14:37 | -0.20936 | 104.31157 | 22666 ft | 381 kts | 348° |
| 2026-05-07 14:37 | -0.18350 | 104.30603 | 22236 ft | 378 kts | 351° |
| 2026-05-07 14:38 | -0.15768 | 104.30141 | 21813 ft | 375 kts | 352° |
| 2026-05-07 14:38 | -0.13201 | 104.29699 | 21391 ft | 373 kts | 352° |
| 2026-05-07 14:38 | -0.10683 | 104.29257 | 20977 ft | 371 kts | 351° |
| 2026-05-07 14:38 | -0.08149 | 104.28797 | 20569 ft | 368 kts | 351° |
| 2026-05-07 14:39 | -0.05632 | 104.28331 | 20138 ft | 366 kts | 351° |
| 2026-05-07 14:39 | -0.03134 | 104.27859 | 19723 ft | 364 kts | 351° |
| 2026-05-07 14:39 | -0.00651 | 104.27384 | 19306 ft | 362 kts | 351° |
| 2026-05-07 14:39 | 0.01821 | 104.26911 | 18891 ft | 360 kts | 350° |
| 2026-05-07 14:40 | 0.04275 | 104.26438 | 18481 ft | 358 kts | 350° |
| 2026-05-07 14:40 | 0.06715 | 104.25967 | 18064 ft | 356 kts | 350° |
| 2026-05-07 14:40 | 0.09138 | 104.25500 | 17653 ft | 354 kts | 350° |
| 2026-05-07 14:40 | 0.11522 | 104.25039 | 17250 ft | 352 kts | 350° |
| 2026-05-07 14:41 | 0.13919 | 104.24576 | 16846 ft | 349 kts | 350° |
| 2026-05-07 14:41 | 0.16299 | 104.24117 | 16434 ft | 347 kts | 350° |
| 2026-05-07 14:41 | 0.18669 | 104.23660 | 16046 ft | 345 kts | 350° |
| 2026-05-07 14:41 | 0.21021 | 104.23206 | 15637 ft | 343 kts | 350° |
| 2026-05-07 14:42 | 0.23359 | 104.22755 | 15236 ft | 341 kts | 350° |
| 2026-05-07 14:42 | 0.25689 | 104.22306 | 14833 ft | 340 kts | 350° |
| 2026-05-07 14:42 | 0.28005 | 104.21860 | 14441 ft | 338 kts | 350° |
| 2026-05-07 14:42 | 0.30310 | 104.21415 | 14046 ft | 336 kts | 350° |
| 2026-05-07 14:43 | 0.32600 | 104.20973 | 13653 ft | 334 kts | 350° |
| 2026-05-07 14:43 | 0.34848 | 104.20539 | 13267 ft | 332 kts | 350° |
| 2026-05-07 14:43 | 0.37109 | 104.20102 | 12877 ft | 330 kts | 350° |
| 2026-05-07 14:43 | 0.39355 | 104.19670 | 12542 ft | 327 kts | 349° |
| 2026-05-07 14:44 | 0.41582 | 104.19240 | 12199 ft | 323 kts | 350° |
| 2026-05-07 14:44 | 0.43796 | 104.18813 | 11827 ft | 321 kts | 350° |
| 2026-05-07 14:44 | 0.45984 | 104.18391 | 11455 ft | 320 kts | 349° |
| 2026-05-07 14:44 | 0.48140 | 104.17976 | 11089 ft | 318 kts | 349° |
| 2026-05-07 14:45 | 0.50312 | 104.17556 | 10707 ft | 317 kts | 349° |
| 2026-05-07 14:45 | 0.52470 | 104.17140 | 10335 ft | 315 kts | 349° |
| 2026-05-07 14:45 | 0.54599 | 104.16729 | 10184 ft | 306 kts | 349° |
| 2026-05-07 14:45 | 0.56663 | 104.16335 | 10036 ft | 297 kts | 349° |
| 2026-05-07 14:46 | 0.58028 | 104.16078 | 9874 ft | 294 kts | 349° |
| 2026-05-07 14:46 | 0.60688 | 104.15577 | 9432 ft | 293 kts | 349° |
| 2026-05-07 14:46 | 0.62017 | 104.15328 | 9211 ft | 292 kts | 349° |
| 2026-05-07 14:46 | 0.64011 | 104.14953 | 8879 ft | 291 kts | 349° |
| 2026-05-07 14:47 | 0.65997 | 104.14579 | 8541 ft | 290 kts | 349° |
| 2026-05-07 14:47 | 0.67975 | 104.14206 | 8207 ft | 289 kts | 349° |
| 2026-05-07 14:47 | 0.69947 | 104.13842 | 7878 ft | 288 kts | 350° |
| 2026-05-07 14:47 | 0.71920 | 104.13502 | 7546 ft | 287 kts | 350° |
| 2026-05-07 14:48 | 0.73883 | 104.13165 | 7223 ft | 286 kts | 350° |
| 2026-05-07 14:48 | 0.75840 | 104.12827 | 6890 ft | 285 kts | 350° |
| 2026-05-07 14:48 | 0.77782 | 104.12483 | 6549 ft | 279 kts | 347° |
| 2026-05-07 14:48 | 0.79509 | 104.11739 | 6209 ft | 265 kts | 326° |
| 2026-05-07 14:49 | 0.80972 | 104.10704 | 5922 ft | 252 kts | 325° |
| 2026-05-07 14:49 | 0.82393 | 104.09725 | 5646 ft | 246 kts | 326° |
| 2026-05-07 14:49 | 0.83787 | 104.08777 | 5378 ft | 244 kts | 326° |
| 2026-05-07 14:49 | 0.85193 | 104.07827 | 5089 ft | 243 kts | 326° |
| 2026-05-07 14:50 | 0.86585 | 104.06888 | 4826 ft | 240 kts | 326° |
| 2026-05-07 14:50 | 0.87962 | 104.05957 | 4557 ft | 237 kts | 326° |
| 2026-05-07 14:50 | 0.89317 | 104.05043 | 4304 ft | 234 kts | 326° |
| 2026-05-07 14:50 | 0.90668 | 104.04133 | 4006 ft | 233 kts | 326° |
| 2026-05-07 14:51 | 0.92007 | 104.03232 | 3785 ft | 229 kts | 326° |
| 2026-05-07 14:51 | 0.93277 | 104.02379 | 3660 ft | 218 kts | 326° |
| 2026-05-07 14:51 | 0.94506 | 104.01552 | 3548 ft | 207 kts | 326° |
| 2026-05-07 14:51 | 0.95677 | 104.00763 | 3456 ft | 200 kts | 326° |
| 2026-05-07 14:52 | 0.96887 | 104.00098 | 3361 ft | 199 kts | 348° |
| 2026-05-07 14:52 | 0.98263 | 104.00106 | 3231 ft | 200 kts | 8° |
| 2026-05-07 14:52 | 0.99599 | 104.00479 | 2969 ft | 200 kts | 38° |
| 2026-05-07 14:52 | 1.00519 | 104.01462 | 2786 ft | 194 kts | 50° |
| 2026-05-07 14:53 | 1.01465 | 104.02421 | 2515 ft | 190 kts | 44° |
| 2026-05-07 14:53 | 1.02390 | 104.03267 | 2332 ft | 175 kts | 43° |
| 2026-05-07 14:53 | 1.03284 | 104.04062 | 2066 ft | 169 kts | 42° |
| 2026-05-07 14:53 | 1.04172 | 104.04847 | 1854 ft | 171 kts | 42° |
| 2026-05-07 14:54 | 1.05048 | 104.05624 | 1629 ft | 162 kts | 41° |
| 2026-05-07 14:54 | 1.05867 | 104.06350 | 1414 ft | 151 kts | 41° |
| 2026-05-07 14:54 | 1.06626 | 104.07025 | 1215 ft | 144 kts | 41° |
| 2026-05-07 14:54 | 1.07374 | 104.07688 | 1034 ft | 144 kts | 41° |
| 2026-05-07 14:55 | 1.08127 | 104.08356 | 845 ft | 148 kts | 41° |
| 2026-05-07 14:55 | 1.08886 | 104.09028 | 643 ft | 146 kts | 41° |
| 2026-05-07 14:55 | 1.09641 | 104.09716 | 479 ft | 148 kts | 41° |
| 2026-05-07 14:55 | 1.10418 | 104.10401 | 281 ft | 149 kts | 40° |
| 2026-05-07 14:56 | 1.11187 | 104.11078 | 151 ft | 142 kts | 40° |
| 2026-05-07 14:56 | 1.11858 | 104.11669 | 140 ft | 109 kts | 41° |
| 2026-05-07 14:56 | 1.12311 | 104.12068 | 142 ft | 64 kts | 41° |
| 2026-05-07 14:56 | 1.12427 | 104.12162 | 142 ft | 12 kts | 32° |
| 2026-05-07 14:57 | 1.12504 | 104.12200 | 142 ft | 13 kts | 21° |